createdAt,value
2023-04-09T00:00:11.234Z,16.05
2023-04-09T00:00:36.150Z,16.06
2023-04-09T00:01:02.849Z,16.05
2023-04-09T00:01:24.752Z,16.05
2023-04-09T00:01:47.361Z,16.03
2023-04-09T00:02:09.858Z,16.02
2023-04-09T00:02:31.577Z,16.00
2023-04-09T00:02:53.295Z,15.98
2023-04-09T00:03:16.133Z,15.97
2023-04-09T00:03:38.939Z,15.97
2023-04-09T00:04:00.996Z,15.98
2023-04-09T00:04:23.760Z,15.93
2023-04-09T00:04:46.624Z,15.76
2023-04-09T00:05:08.581Z,15.94
2023-04-09T00:05:30.264Z,15.98
2023-04-09T00:05:52.440Z,15.99
2023-04-09T00:06:15.037Z,15.93
2023-04-09T00:06:36.734Z,15.69
2023-04-09T00:06:58.507Z,15.89
2023-04-09T00:07:20.271Z,15.89
2023-04-09T00:07:44.232Z,15.96
2023-04-09T00:08:07.789Z,15.98
2023-04-09T00:08:29.608Z,15.94
2023-04-09T00:08:51.741Z,15.92
2023-04-09T00:09:13.633Z,15.74
2023-04-09T00:09:36.238Z,15.93
2023-04-09T00:09:57.860Z,15.92
2023-04-09T00:10:19.605Z,15.94
2023-04-09T00:10:41.608Z,15.92
2023-04-09T00:11:04.706Z,15.93
2023-04-09T00:11:26.927Z,15.92
2023-04-09T00:11:48.559Z,15.81
2023-04-09T00:12:10.535Z,15.95
2023-04-09T00:12:33.506Z,15.95
2023-04-09T00:12:56.032Z,15.95
2023-04-09T00:13:25.335Z,15.96
2023-04-09T00:13:53.534Z,15.94
2023-04-09T00:14:15.363Z,15.91
2023-04-09T00:14:38.002Z,15.91
2023-04-09T00:14:59.740Z,15.91
2023-04-09T00:15:30.605Z,15.78
2023-04-09T00:15:53.511Z,15.93
2023-04-09T00:16:16.145Z,15.89
2023-04-09T00:16:38.196Z,15.74
2023-04-09T00:16:59.884Z,15.93
2023-04-09T00:17:21.659Z,15.93
2023-04-09T00:17:44.313Z,15.94
2023-04-09T00:18:06.198Z,15.92
2023-04-09T00:18:28.014Z,15.92
2023-04-09T00:18:49.938Z,15.90
2023-04-09T00:19:12.780Z,15.89
2023-04-09T00:19:34.472Z,15.92
2023-04-09T00:19:56.322Z,15.79
2023-04-09T00:20:18.069Z,15.78
2023-04-09T00:20:39.918Z,15.93
2023-04-09T00:21:02.689Z,15.94
2023-04-09T00:21:24.343Z,15.92
2023-04-09T00:21:45.940Z,15.94
2023-04-09T00:22:07.515Z,15.78
2023-04-09T00:22:30.224Z,15.90
2023-04-09T00:22:52.372Z,15.89
2023-04-09T00:23:14.130Z,15.88
2023-04-09T00:23:35.963Z,15.81
2023-04-09T00:23:58.954Z,15.87
2023-04-09T00:24:20.543Z,15.88
2023-04-09T00:24:42.176Z,15.85
2023-04-09T00:25:04.399Z,15.85
2023-04-09T00:25:26.217Z,15.88
2023-04-09T00:25:48.878Z,15.88
2023-04-09T00:26:10.533Z,15.82
2023-04-09T00:26:32.759Z,15.88
2023-04-09T00:26:54.408Z,15.90
2023-04-09T00:27:17.028Z,15.90
2023-04-09T00:27:40.288Z,15.89
2023-04-09T00:28:02.017Z,15.90
2023-04-09T00:28:23.731Z,15.88
2023-04-09T00:28:46.662Z,15.88
2023-04-09T00:29:08.321Z,15.87
2023-04-09T00:29:30.062Z,15.87
2023-04-09T00:29:53.719Z,15.86
2023-04-09T00:30:15.796Z,15.86
2023-04-09T00:30:38.426Z,15.80
2023-04-09T00:31:00.357Z,15.84
2023-04-09T00:31:22.005Z,15.84
2023-04-09T00:31:43.598Z,15.84
2023-04-09T00:32:06.862Z,15.87
2023-04-09T00:32:28.513Z,15.87
2023-04-09T00:32:50.694Z,15.87
2023-04-09T00:33:12.527Z,15.83
2023-04-09T00:33:35.310Z,15.90
2023-04-09T00:33:57.388Z,15.84
2023-04-09T00:34:19.096Z,15.93
2023-04-09T00:34:40.951Z,15.89
2023-04-09T00:35:02.536Z,15.77
2023-04-09T00:35:25.969Z,15.78
2023-04-09T00:35:47.716Z,15.91
2023-04-09T00:36:09.457Z,15.91
2023-04-09T00:36:32.221Z,15.92
2023-04-09T00:37:02.531Z,15.93
2023-04-09T00:37:24.392Z,15.94
2023-04-09T00:37:46.228Z,15.94
2023-04-09T00:38:08.901Z,15.88
2023-04-09T00:38:30.860Z,15.87
2023-04-09T00:38:56.157Z,15.83
2023-04-09T00:39:19.091Z,15.83
2023-04-09T00:39:41.689Z,15.79
2023-04-09T00:40:04.143Z,15.74
2023-04-09T00:40:26.087Z,15.79
2023-04-09T00:40:49.400Z,15.80
2023-04-09T00:41:11.269Z,15.79
2023-04-09T00:41:34.237Z,15.76
2023-04-09T00:42:01.440Z,15.79
2023-04-09T00:42:23.661Z,15.76
2023-04-09T00:42:48.020Z,15.76
2023-04-09T00:43:10.014Z,15.77
2023-04-09T00:43:31.665Z,15.79
2023-04-09T00:43:56.077Z,15.73
2023-04-09T00:44:18.671Z,15.70
2023-04-09T00:44:40.494Z,15.75
2023-04-09T00:45:02.178Z,15.68
2023-04-09T00:45:24.040Z,15.76
2023-04-09T00:45:46.850Z,15.76
2023-04-09T00:46:08.679Z,15.75
2023-04-09T00:46:31.438Z,15.75
2023-04-09T00:46:54.255Z,15.74
2023-04-09T00:47:15.931Z,15.72
2023-04-09T00:47:38.703Z,15.67
2023-04-09T00:48:00.853Z,15.75
2023-04-09T00:48:22.867Z,15.69
2023-04-09T00:48:44.769Z,15.75
2023-04-09T00:49:07.670Z,15.75
2023-04-09T00:49:29.946Z,15.77
2023-04-09T00:49:51.622Z,15.79
2023-04-09T00:50:13.375Z,15.77
2023-04-09T00:50:36.078Z,15.67
2023-04-09T00:50:57.780Z,15.76
2023-04-09T00:51:19.421Z,15.76
2023-04-09T00:51:41.097Z,15.73
2023-04-09T00:52:04.020Z,15.73
2023-04-09T00:52:26.031Z,15.70
2023-04-09T00:52:47.701Z,15.70
2023-04-09T00:53:12.801Z,15.61
2023-04-09T00:53:34.797Z,15.68
2023-04-09T00:53:56.589Z,15.67
2023-04-09T00:54:18.772Z,15.62
2023-04-09T00:54:41.323Z,15.69
2023-04-09T00:55:05.407Z,15.64
2023-04-09T00:55:27.081Z,15.68
2023-04-09T00:55:49.007Z,15.68
2023-04-09T00:56:13.284Z,15.67
2023-04-09T00:56:36.984Z,15.64
2023-04-09T00:56:59.549Z,15.62
2023-04-09T00:57:21.686Z,15.62
2023-04-09T00:57:43.415Z,15.64
2023-04-09T00:58:07.582Z,15.63
2023-04-09T00:58:29.370Z,15.65
2023-04-09T00:58:51.351Z,15.66
2023-04-09T00:59:13.477Z,15.61
2023-04-09T00:59:35.264Z,15.61
2023-04-09T00:59:57.984Z,15.60
2023-04-09T01:00:19.709Z,15.60
2023-04-09T01:00:41.442Z,15.57
2023-04-09T01:01:03.423Z,15.59
2023-04-09T01:01:26.197Z,15.55
2023-04-09T01:01:47.946Z,15.58
2023-04-09T01:02:09.927Z,15.57
2023-04-09T01:02:31.741Z,15.61
2023-04-09T01:02:56.168Z,15.60
2023-04-09T01:03:19.083Z,15.58
2023-04-09T01:03:41.161Z,15.55
2023-04-09T01:04:03.332Z,15.58
2023-04-09T01:04:25.565Z,15.56
2023-04-09T01:04:49.780Z,15.59
2023-04-09T01:05:13.042Z,15.59
2023-04-09T01:05:41.338Z,15.60
2023-04-09T01:06:11.037Z,15.59
2023-04-09T01:06:43.674Z,15.61
2023-04-09T01:07:11.879Z,15.61
2023-04-09T01:07:49.066Z,15.61
2023-04-09T01:08:20.321Z,15.61
2023-04-09T01:08:49.582Z,15.60
2023-04-09T01:09:18.501Z,15.57
2023-04-09T01:09:43.786Z,15.62
2023-04-09T01:10:17.897Z,15.58
2023-04-09T01:10:44.569Z,15.59
2023-04-09T01:11:28.865Z,15.61
2023-04-09T01:12:03.360Z,15.58
2023-04-09T01:12:33.211Z,15.59
2023-04-09T01:13:04.235Z,15.58
2023-04-09T01:13:32.454Z,15.55
2023-04-09T01:14:05.209Z,15.60
2023-04-09T01:14:32.908Z,15.60
2023-04-09T01:15:06.050Z,15.59
2023-04-09T01:15:33.930Z,15.50
2023-04-09T01:15:58.462Z,15.53
2023-04-09T01:16:23.889Z,15.51
2023-04-09T01:16:53.875Z,15.57
2023-04-09T01:17:21.978Z,15.55
2023-04-09T01:17:50.584Z,15.56
2023-04-09T01:18:30.229Z,15.54
2023-04-09T01:18:58.189Z,15.56
2023-04-09T01:19:36.033Z,15.54
2023-04-09T01:20:01.734Z,15.58
2023-04-09T01:20:33.726Z,15.57
2023-04-09T01:20:59.323Z,15.57
2023-04-09T01:21:26.613Z,15.59
2023-04-09T01:21:49.207Z,15.53
2023-04-09T01:22:31.756Z,15.60
2023-04-09T01:22:59.667Z,15.57
2023-04-09T01:23:34.756Z,15.57
2023-04-09T01:24:10.781Z,15.44
2023-04-09T01:24:42.826Z,15.49
2023-04-09T01:25:17.298Z,15.54
2023-04-09T01:25:46.585Z,15.51
2023-04-09T01:26:17.142Z,15.53
2023-04-09T01:26:58.342Z,15.52
2023-04-09T01:27:31.984Z,15.57
2023-04-09T01:28:08.166Z,15.57
2023-04-09T01:28:33.226Z,15.53
2023-04-09T01:28:57.759Z,15.53
2023-04-09T01:29:22.834Z,15.51
2023-04-09T01:29:47.817Z,15.51
2023-04-09T01:30:10.881Z,15.48
2023-04-09T01:30:33.769Z,15.41
2023-04-09T01:31:01.775Z,15.45
2023-04-09T01:31:29.710Z,15.44
2023-04-09T01:31:52.261Z,15.41
2023-04-09T01:32:18.315Z,15.42
2023-04-09T01:32:41.329Z,15.41
2023-04-09T01:33:05.333Z,15.42
2023-04-09T01:33:27.593Z,15.39
2023-04-09T01:33:50.195Z,15.38
2023-04-09T01:34:13.263Z,15.38
2023-04-09T01:34:36.166Z,15.40
2023-04-09T01:34:58.311Z,15.41
2023-04-09T01:35:22.221Z,15.40
2023-04-09T01:35:46.252Z,15.40
2023-04-09T01:36:08.434Z,15.40
2023-04-09T01:36:32.278Z,15.41
2023-04-09T01:36:59.234Z,15.43
2023-04-09T01:37:22.771Z,15.43
2023-04-09T01:37:44.958Z,15.41
2023-04-09T01:38:07.374Z,15.39
2023-04-09T01:38:29.982Z,15.37
2023-04-09T01:38:54.121Z,15.44
2023-04-09T01:39:16.380Z,15.42
2023-04-09T01:39:39.169Z,15.44
2023-04-09T01:40:02.273Z,15.36
2023-04-09T01:40:24.628Z,15.43
2023-04-09T01:40:46.843Z,15.40
2023-04-09T01:41:18.225Z,15.40
2023-04-09T01:41:41.406Z,15.43
2023-04-09T01:42:03.825Z,15.44
2023-04-09T01:42:26.305Z,15.44
2023-04-09T01:42:49.976Z,15.36
2023-04-09T01:43:15.057Z,15.43
2023-04-09T01:43:37.897Z,15.46
2023-04-09T01:44:01.808Z,15.48
2023-04-09T01:44:25.477Z,15.45
2023-04-09T01:44:48.845Z,15.42
2023-04-09T01:45:11.805Z,15.43
2023-04-09T01:45:34.840Z,15.41
2023-04-09T01:45:57.246Z,15.43
2023-04-09T01:46:21.329Z,15.46
2023-04-09T01:46:43.138Z,15.41
2023-04-09T01:47:05.568Z,15.39
2023-04-09T01:47:27.873Z,15.42
2023-04-09T01:47:49.903Z,15.41
2023-04-09T01:48:14.358Z,15.40
2023-04-09T01:48:36.907Z,15.39
2023-04-09T01:48:59.311Z,15.38
2023-04-09T01:49:22.076Z,15.36
2023-04-09T01:49:45.766Z,15.35
2023-04-09T01:50:08.298Z,15.34
2023-04-09T01:50:30.235Z,15.35
2023-04-09T01:50:52.095Z,15.37
2023-04-09T01:51:14.189Z,15.36
2023-04-09T01:51:37.650Z,15.37
2023-04-09T01:51:59.942Z,15.37
2023-04-09T01:52:21.980Z,15.37
2023-04-09T01:52:43.845Z,15.37
2023-04-09T01:53:06.121Z,15.36
2023-04-09T01:53:28.808Z,15.37
2023-04-09T01:53:50.520Z,15.37
2023-04-09T01:54:12.182Z,15.35
2023-04-09T01:54:33.978Z,15.33
2023-04-09T01:54:55.820Z,15.38
2023-04-09T01:55:17.597Z,15.40
2023-04-09T01:55:40.331Z,15.40
2023-04-09T01:56:03.520Z,15.41
2023-04-09T01:56:25.773Z,15.45
2023-04-09T01:56:49.772Z,15.43
2023-04-09T01:57:11.672Z,15.47
2023-04-09T01:57:33.286Z,15.47
2023-04-09T01:57:54.902Z,15.44
2023-04-09T01:58:19.259Z,15.48
2023-04-09T01:58:41.270Z,15.46
2023-04-09T01:59:02.988Z,15.45
2023-04-09T01:59:24.653Z,15.47
2023-04-09T01:59:46.279Z,15.46
2023-04-09T02:00:10.578Z,15.47
2023-04-09T02:00:40.696Z,15.45
2023-04-09T02:01:11.878Z,15.43
2023-04-09T02:01:40.165Z,15.34
2023-04-09T02:02:06.856Z,15.44
2023-04-09T02:02:36.730Z,15.43
2023-04-09T02:03:06.128Z,15.42
2023-04-09T02:03:34.471Z,15.38
2023-04-09T02:04:00.833Z,15.36
2023-04-09T02:04:26.974Z,15.38
2023-04-09T02:04:52.514Z,15.42
2023-04-09T02:05:17.898Z,15.42
2023-04-09T02:05:46.399Z,15.40
2023-04-09T02:06:16.052Z,15.39
2023-04-09T02:06:43.745Z,15.37
2023-04-09T02:07:10.641Z,15.37
2023-04-09T02:07:38.067Z,15.35
2023-04-09T02:08:03.869Z,15.35
2023-04-09T02:08:27.843Z,15.32
2023-04-09T02:08:52.070Z,15.35
2023-04-09T02:09:17.725Z,15.34
2023-04-09T02:09:42.822Z,15.35
2023-04-09T02:10:06.806Z,15.33
2023-04-09T02:10:31.683Z,15.37
2023-04-09T02:10:58.084Z,15.29
2023-04-09T02:11:24.549Z,15.43
2023-04-09T02:11:48.582Z,15.43
2023-04-09T02:12:13.318Z,15.42
2023-04-09T02:12:38.526Z,15.40
2023-04-09T02:13:03.200Z,15.38
2023-04-09T02:13:28.607Z,15.43
2023-04-09T02:13:54.348Z,15.41
2023-04-09T02:14:16.517Z,15.42
2023-04-09T02:14:42.025Z,15.38
2023-04-09T02:15:06.039Z,15.40
2023-04-09T02:15:29.195Z,15.38
2023-04-09T02:15:51.767Z,15.38
2023-04-09T02:16:16.753Z,15.34
2023-04-09T02:16:39.294Z,15.37
2023-04-09T02:17:02.141Z,15.25
2023-04-09T02:17:23.848Z,15.38
2023-04-09T02:17:45.660Z,15.38
2023-04-09T02:18:22.016Z,15.29
2023-04-09T02:18:44.121Z,15.29
2023-04-09T02:19:06.118Z,15.06
2023-04-09T02:19:39.095Z,15.22
2023-04-09T02:20:01.657Z,15.28
2023-04-09T02:20:24.657Z,15.27
2023-04-09T02:20:46.265Z,15.25
2023-04-09T02:21:07.966Z,15.26
2023-04-09T02:21:31.644Z,15.27
2023-04-09T02:21:53.348Z,15.30
2023-04-09T02:22:16.056Z,15.30
2023-04-09T02:22:39.070Z,15.31
2023-04-09T02:23:01.669Z,15.32
2023-04-09T02:23:24.023Z,15.14
2023-04-09T02:23:45.620Z,15.32
2023-04-09T02:24:07.481Z,15.28
2023-04-09T02:24:30.572Z,15.34
2023-04-09T02:24:52.149Z,15.35
2023-04-09T02:25:14.280Z,15.30
2023-04-09T02:25:37.038Z,15.31
2023-04-09T02:25:59.241Z,15.29
2023-04-09T02:26:21.423Z,15.25
2023-04-09T02:26:43.028Z,15.25
2023-04-09T02:27:08.629Z,15.06
2023-04-09T02:27:30.499Z,15.22
2023-04-09T02:27:52.101Z,15.27
2023-04-09T02:28:14.780Z,15.26
2023-04-09T02:28:38.310Z,15.10
2023-04-09T02:28:59.955Z,15.23
2023-04-09T02:29:21.885Z,15.18
2023-04-09T02:29:43.754Z,15.23
2023-04-09T02:30:09.130Z,15.22
2023-04-09T02:30:30.843Z,15.25
2023-04-09T02:30:52.469Z,15.25
2023-04-09T02:31:14.204Z,15.25
2023-04-09T02:31:36.978Z,15.28
2023-04-09T02:31:58.701Z,15.30
2023-04-09T02:32:20.463Z,15.31
2023-04-09T02:32:42.187Z,15.27
2023-04-09T02:33:04.253Z,15.26
2023-04-09T02:33:26.960Z,15.30
2023-04-09T02:33:48.946Z,15.26
2023-04-09T02:34:10.803Z,15.28
2023-04-09T02:34:32.470Z,15.26
2023-04-09T02:34:57.680Z,15.27
2023-04-09T02:35:19.337Z,15.25
2023-04-09T02:35:41.008Z,15.24
2023-04-09T02:36:02.996Z,15.25
2023-04-09T02:36:26.494Z,15.25
2023-04-09T02:36:48.419Z,15.21
2023-04-09T02:37:10.205Z,15.23
2023-04-09T02:37:32.006Z,15.23
2023-04-09T02:37:54.693Z,15.22
2023-04-09T02:38:16.348Z,15.23
2023-04-09T02:38:37.997Z,15.19
2023-04-09T02:38:59.562Z,15.22
2023-04-09T02:39:22.143Z,15.23
2023-04-09T02:39:43.987Z,15.22
2023-04-09T02:40:07.005Z,15.23
2023-04-09T02:40:29.623Z,15.25
2023-04-09T02:40:51.377Z,15.25
2023-04-09T02:41:13.039Z,15.23
2023-04-09T02:41:34.691Z,15.27
2023-04-09T02:41:57.753Z,15.25
2023-04-09T02:42:21.757Z,15.23
2023-04-09T02:42:43.531Z,15.24
2023-04-09T02:43:05.278Z,15.22
2023-04-09T02:43:28.000Z,15.24
2023-04-09T02:43:50.984Z,15.22
2023-04-09T02:44:12.716Z,15.23
2023-04-09T02:44:34.590Z,15.13
2023-04-09T02:44:57.578Z,15.24
2023-04-09T02:45:19.778Z,15.20
2023-04-09T02:45:41.569Z,15.14
2023-04-09T02:46:03.501Z,15.22
2023-04-09T02:46:27.042Z,15.21
2023-04-09T02:46:49.173Z,15.20
2023-04-09T02:47:11.183Z,15.21
2023-04-09T02:47:34.093Z,15.20
2023-04-09T02:47:56.791Z,15.17
2023-04-09T02:48:18.474Z,15.18
2023-04-09T02:48:40.174Z,15.18
2023-04-09T02:49:01.978Z,15.21
2023-04-09T02:49:24.978Z,15.12
2023-04-09T02:49:46.624Z,15.16
2023-04-09T02:50:08.811Z,15.09
2023-04-09T02:50:33.763Z,15.11
2023-04-09T02:50:56.456Z,15.08
2023-04-09T02:51:18.286Z,15.17
2023-04-09T02:51:39.943Z,15.19
2023-04-09T02:52:01.661Z,15.23
2023-04-09T02:52:25.170Z,15.23
2023-04-09T02:52:47.758Z,15.21
2023-04-09T02:53:10.915Z,15.27
2023-04-09T02:53:32.534Z,15.23
2023-04-09T02:53:55.235Z,15.26
2023-04-09T02:54:16.922Z,15.27
2023-04-09T02:54:38.675Z,15.25
2023-04-09T02:55:00.347Z,15.20
2023-04-09T02:55:23.383Z,15.24
2023-04-09T02:55:45.028Z,15.22
2023-04-09T02:56:06.753Z,15.21
2023-04-09T02:56:29.725Z,15.22
2023-04-09T02:56:52.380Z,15.22
2023-04-09T02:57:14.061Z,15.23
2023-04-09T02:57:36.338Z,15.23
2023-04-09T02:57:58.045Z,15.25
2023-04-09T02:58:20.713Z,15.24
2023-04-09T02:58:42.328Z,15.24
2023-04-09T02:59:05.337Z,15.20
2023-04-09T02:59:27.067Z,15.24
2023-04-09T02:59:49.733Z,15.26
2023-04-09T03:00:12.470Z,15.28
2023-04-09T03:00:34.241Z,15.28
2023-04-09T03:00:56.163Z,15.31
2023-04-09T03:01:18.827Z,15.26
2023-04-09T03:01:40.666Z,15.30
2023-04-09T03:02:02.609Z,15.28
2023-04-09T03:02:24.520Z,15.29
2023-04-09T03:02:47.321Z,15.27
2023-04-09T03:03:09.239Z,15.27
2023-04-09T03:03:31.626Z,15.28
2023-04-09T03:03:53.407Z,15.28
2023-04-09T03:04:17.503Z,15.28
2023-04-09T03:04:39.493Z,15.24
2023-04-09T03:05:01.288Z,15.18
2023-04-09T03:05:23.779Z,15.17
2023-04-09T03:05:46.432Z,15.09
2023-04-09T03:06:08.159Z,15.15
2023-04-09T03:06:29.821Z,15.08
2023-04-09T03:06:51.654Z,15.10
2023-04-09T03:07:13.358Z,15.09
2023-04-09T03:07:36.014Z,15.14
2023-04-09T03:07:57.731Z,15.06
2023-04-09T03:08:19.450Z,15.13
2023-04-09T03:08:42.129Z,15.13
2023-04-09T03:09:04.002Z,15.02
2023-04-09T03:09:25.673Z,15.00
2023-04-09T03:09:47.272Z,14.97
2023-04-09T03:10:10.852Z,14.97
2023-04-09T03:10:32.557Z,14.98
2023-04-09T03:10:54.217Z,15.00
2023-04-09T03:11:15.978Z,15.00
2023-04-09T03:11:38.601Z,14.99
2023-04-09T03:12:01.862Z,14.97
2023-04-09T03:12:23.541Z,14.99
2023-04-09T03:12:45.192Z,14.97
2023-04-09T03:13:07.781Z,15.01
2023-04-09T03:13:29.424Z,15.01
2023-04-09T03:13:51.079Z,14.96
2023-04-09T03:14:14.116Z,15.05
2023-04-09T03:14:35.758Z,15.03
2023-04-09T03:14:58.347Z,15.03
2023-04-09T03:15:19.973Z,14.94
2023-04-09T03:15:41.829Z,15.07
2023-04-09T03:16:03.875Z,15.06
2023-04-09T03:16:26.734Z,15.05
2023-04-09T03:16:48.340Z,15.05
2023-04-09T03:17:10.031Z,15.05
2023-04-09T03:17:32.160Z,14.92
2023-04-09T03:17:54.921Z,14.99
2023-04-09T03:18:16.625Z,14.99
2023-04-09T03:18:38.301Z,15.00
2023-04-09T03:19:00.446Z,15.01
2023-04-09T03:19:23.166Z,14.97
2023-04-09T03:19:44.921Z,14.89
2023-04-09T03:20:07.605Z,14.91
2023-04-09T03:20:32.521Z,14.95
2023-04-09T03:20:55.037Z,14.92
2023-04-09T03:21:16.916Z,14.88
2023-04-09T03:21:43.163Z,14.93
2023-04-09T03:22:05.454Z,14.93
2023-04-09T03:22:28.091Z,14.94
2023-04-09T03:22:50.339Z,14.81
2023-04-09T03:23:26.849Z,14.87
2023-04-09T03:23:49.707Z,14.85
2023-04-09T03:24:11.723Z,14.85
2023-04-09T03:24:33.791Z,14.88
2023-04-09T03:24:58.517Z,14.82
2023-04-09T03:25:21.163Z,14.83
2023-04-09T03:25:46.455Z,14.78
2023-04-09T03:26:11.333Z,14.74
2023-04-09T03:26:40.740Z,14.86
2023-04-09T03:27:02.498Z,14.83
2023-04-09T03:27:25.592Z,14.83
2023-04-09T03:27:50.162Z,14.84
2023-04-09T03:28:22.073Z,14.85
2023-04-09T03:28:47.536Z,14.85
2023-04-09T03:29:09.107Z,14.84
2023-04-09T03:29:32.226Z,14.83
2023-04-09T03:29:55.995Z,14.83
2023-04-09T03:30:21.044Z,14.85
2023-04-09T03:30:42.802Z,14.85
2023-04-09T03:31:04.749Z,14.83
2023-04-09T03:31:30.957Z,14.54
2023-04-09T03:31:53.778Z,14.85
2023-04-09T03:32:16.817Z,14.83
2023-04-09T03:32:40.295Z,14.78
2023-04-09T03:33:03.425Z,14.85
2023-04-09T03:33:29.387Z,14.85
2023-04-09T03:33:53.140Z,14.84
2023-04-09T03:34:14.915Z,14.65
2023-04-09T03:34:36.579Z,14.81
2023-04-09T03:34:59.223Z,14.84
2023-04-09T03:35:21.303Z,14.83
2023-04-09T03:35:43.303Z,14.79
2023-04-09T03:36:06.516Z,14.84
2023-04-09T03:36:50.090Z,14.79
2023-04-09T03:37:18.681Z,14.80
2023-04-09T03:37:40.607Z,14.80
2023-04-09T03:38:08.975Z,14.74
2023-04-09T03:38:30.756Z,14.73
2023-04-09T03:38:55.761Z,14.64
2023-04-09T03:39:40.792Z,14.71
2023-04-09T03:40:03.279Z,14.69
2023-04-09T03:40:27.291Z,14.65
2023-04-09T03:40:48.955Z,14.74
2023-04-09T03:41:10.629Z,14.70
2023-04-09T03:41:33.112Z,14.73
2023-04-09T03:41:59.711Z,14.71
2023-04-09T03:42:25.197Z,14.64
2023-04-09T03:42:46.914Z,14.67
2023-04-09T03:43:10.724Z,14.67
2023-04-09T03:43:36.572Z,14.68
2023-04-09T03:43:58.801Z,14.67
2023-04-09T03:44:25.249Z,14.67
2023-04-09T03:44:56.383Z,14.52
2023-04-09T03:45:29.466Z,14.70
2023-04-09T03:46:11.125Z,14.57
2023-04-09T03:46:32.972Z,14.68
2023-04-09T03:46:57.001Z,14.62
2023-04-09T03:47:19.617Z,14.67
2023-04-09T03:47:41.580Z,14.65
2023-04-09T03:48:04.204Z,14.63
2023-04-09T03:48:27.348Z,14.66
2023-04-09T03:48:51.685Z,14.68
2023-04-09T03:49:14.506Z,14.70
2023-04-09T03:49:39.147Z,14.69
2023-04-09T03:50:12.780Z,14.67
2023-04-09T03:50:45.302Z,14.67
2023-04-09T03:51:12.855Z,14.69
2023-04-09T03:51:35.605Z,14.67
2023-04-09T03:51:57.563Z,14.66
2023-04-09T03:52:24.852Z,14.68
2023-04-09T03:52:54.867Z,14.67
2023-04-09T03:53:16.834Z,14.69
2023-04-09T03:53:40.304Z,14.49
2023-04-09T03:54:03.120Z,14.72
2023-04-09T03:54:24.833Z,14.72
2023-04-09T03:54:47.393Z,14.69
2023-04-09T03:55:13.883Z,14.66
2023-04-09T03:55:38.430Z,14.66
2023-04-09T03:56:06.087Z,14.68
2023-04-09T03:56:29.416Z,14.66
2023-04-09T03:56:51.943Z,14.68
2023-04-09T03:57:19.201Z,14.67
2023-04-09T03:57:43.613Z,14.65
2023-04-09T03:58:09.500Z,14.63
2023-04-09T03:58:32.478Z,14.35
2023-04-09T03:58:56.065Z,14.63
2023-04-09T03:59:26.380Z,14.64
2023-04-09T03:59:48.356Z,14.58
2023-04-09T04:00:14.904Z,14.57
2023-04-09T04:00:46.714Z,14.60
2023-04-09T04:01:25.798Z,14.57
2023-04-09T04:01:52.859Z,14.55
2023-04-09T04:02:14.759Z,14.44
2023-04-09T04:02:41.979Z,14.53
2023-04-09T04:03:05.908Z,14.50
2023-04-09T04:03:54.211Z,14.50
2023-04-09T04:04:23.604Z,14.49
2023-04-09T04:04:50.839Z,14.47
2023-04-09T04:05:12.592Z,14.49
2023-04-09T04:05:40.054Z,14.49
2023-04-09T04:06:04.585Z,14.46
2023-04-09T04:06:38.157Z,14.31
2023-04-09T04:07:20.235Z,14.48
2023-04-09T04:07:46.587Z,14.48
2023-04-09T04:08:14.239Z,14.46
2023-04-09T04:08:35.934Z,14.45
2023-04-09T04:08:57.680Z,14.45
2023-04-09T04:09:28.209Z,14.40
2023-04-09T04:09:54.578Z,14.41
2023-04-09T04:10:16.465Z,14.44
2023-04-09T04:10:40.951Z,14.39
2023-04-09T04:11:04.899Z,14.39
2023-04-09T04:11:28.101Z,14.39
2023-04-09T04:11:50.316Z,14.41
2023-04-09T04:12:13.477Z,14.39
2023-04-09T04:12:50.260Z,14.38
2023-04-09T04:13:24.302Z,14.42
2023-04-09T04:13:51.007Z,14.33
2023-04-09T04:14:12.670Z,14.43
2023-04-09T04:14:37.768Z,14.42
2023-04-09T04:15:10.132Z,14.45
2023-04-09T04:15:41.228Z,14.32
2023-04-09T04:16:07.446Z,14.34
2023-04-09T04:16:31.023Z,14.34
2023-04-09T04:16:52.884Z,14.36
2023-04-09T04:17:17.543Z,14.34
2023-04-09T04:17:39.400Z,14.36
2023-04-09T04:18:09.365Z,14.40
2023-04-09T04:18:38.607Z,14.36
2023-04-09T04:19:00.689Z,14.40
2023-04-09T04:19:24.607Z,14.41
2023-04-09T04:19:46.995Z,14.42
2023-04-09T04:20:10.108Z,14.40
2023-04-09T04:20:42.494Z,14.39
2023-04-09T04:21:13.997Z,14.35
2023-04-09T04:21:39.069Z,14.40
2023-04-09T04:22:01.550Z,14.41
2023-04-09T04:22:26.109Z,14.41
2023-04-09T04:22:50.322Z,14.41
2023-04-09T04:23:13.238Z,14.42
2023-04-09T04:23:47.399Z,14.25
2023-04-09T04:24:14.676Z,14.38
2023-04-09T04:24:36.474Z,14.39
2023-04-09T04:24:58.526Z,14.33
2023-04-09T04:25:21.391Z,14.37
2023-04-09T04:25:44.664Z,14.36
2023-04-09T04:26:10.680Z,14.35
2023-04-09T04:26:33.239Z,14.34
2023-04-09T04:26:54.993Z,14.37
2023-04-09T04:27:18.206Z,14.35
2023-04-09T04:27:41.746Z,14.35
2023-04-09T04:28:14.148Z,14.36
2023-04-09T04:28:37.314Z,14.37
2023-04-09T04:29:01.272Z,14.37
2023-04-09T04:29:37.804Z,14.27
2023-04-09T04:30:09.775Z,14.32
2023-04-09T04:30:42.716Z,14.30
2023-04-09T04:31:07.963Z,14.30
2023-04-09T04:31:29.697Z,14.27
2023-04-09T04:31:54.365Z,14.26
2023-04-09T04:32:18.865Z,14.25
2023-04-09T04:32:40.766Z,14.24
2023-04-09T04:33:05.961Z,14.18
2023-04-09T04:33:36.254Z,14.26
2023-04-09T04:33:59.393Z,14.19
2023-04-09T04:34:21.239Z,14.13
2023-04-09T04:34:50.481Z,14.26
2023-04-09T04:35:22.559Z,14.17
2023-04-09T04:35:48.421Z,14.07
2023-04-09T04:36:30.674Z,14.23
2023-04-09T04:36:53.224Z,14.24
2023-04-09T04:37:15.494Z,14.22
2023-04-09T04:37:37.170Z,14.23
2023-04-09T04:37:59.024Z,14.20
2023-04-09T04:38:22.032Z,14.19
2023-04-09T04:38:45.279Z,14.19
2023-04-09T04:39:27.621Z,14.19
2023-04-09T04:39:57.041Z,14.19
2023-04-09T04:40:19.672Z,14.19
2023-04-09T04:40:42.521Z,14.17
2023-04-09T04:41:04.706Z,14.13
2023-04-09T04:41:29.537Z,14.15
2023-04-09T04:42:03.505Z,14.14
2023-04-09T04:42:25.562Z,14.12
2023-04-09T04:42:47.211Z,14.13
2023-04-09T04:43:10.799Z,14.11
2023-04-09T04:43:32.528Z,14.09
2023-04-09T04:43:55.398Z,14.12
2023-04-09T04:44:18.993Z,14.11
2023-04-09T04:44:41.284Z,14.09
2023-04-09T04:45:10.178Z,14.10
2023-04-09T04:45:57.220Z,14.12
2023-04-09T04:46:21.109Z,14.12
2023-04-09T04:46:43.235Z,14.10
2023-04-09T04:47:06.964Z,14.10
2023-04-09T04:47:29.774Z,14.10
2023-04-09T04:47:53.165Z,14.12
2023-04-09T04:48:15.038Z,14.14
2023-04-09T04:48:36.697Z,14.14
2023-04-09T04:48:59.282Z,14.13
2023-04-09T04:49:21.994Z,14.13
2023-04-09T04:49:43.715Z,14.09
2023-04-09T04:50:07.415Z,14.12
2023-04-09T04:50:40.781Z,14.12
2023-04-09T04:51:04.801Z,14.04
2023-04-09T04:51:34.242Z,14.09
2023-04-09T04:52:05.670Z,14.08
2023-04-09T04:52:28.644Z,14.08
2023-04-09T04:52:50.365Z,14.06
2023-04-09T04:53:13.311Z,14.09
2023-04-09T04:53:41.563Z,14.12
2023-04-09T04:54:07.383Z,14.11
2023-04-09T04:54:29.177Z,14.13
2023-04-09T04:54:52.810Z,14.10
2023-04-09T04:55:17.752Z,14.10
2023-04-09T04:55:40.875Z,14.11
2023-04-09T04:56:06.298Z,14.02
2023-04-09T04:56:27.999Z,14.07
2023-04-09T04:57:11.932Z,14.03
2023-04-09T04:57:35.717Z,14.02
2023-04-09T04:57:57.349Z,14.02
2023-04-09T04:58:22.392Z,14.01
2023-04-09T04:58:50.123Z,13.99
2023-04-09T04:59:14.200Z,14.01
2023-04-09T04:59:47.690Z,13.98
2023-04-09T05:00:11.930Z,13.95
2023-04-09T05:00:33.785Z,14.00
2023-04-09T05:01:00.310Z,14.01
2023-04-09T05:01:22.211Z,13.96
2023-04-09T05:01:44.978Z,14.03
2023-04-09T05:02:08.506Z,14.01
2023-04-09T05:02:43.943Z,14.00
2023-04-09T05:03:35.732Z,14.02
2023-04-09T05:04:05.148Z,13.95
2023-04-09T05:04:28.782Z,14.03
2023-04-09T05:04:51.624Z,14.06
2023-04-09T05:05:17.441Z,14.05
2023-04-09T05:05:46.207Z,14.05
2023-04-09T05:06:09.010Z,14.02
2023-04-09T05:06:36.774Z,14.00
2023-04-09T05:07:03.645Z,14.00
2023-04-09T05:07:25.342Z,13.97
2023-04-09T05:07:49.840Z,13.94
2023-04-09T05:08:12.899Z,13.88
2023-04-09T05:08:35.039Z,13.93
2023-04-09T05:08:58.139Z,13.93
2023-04-09T05:09:22.472Z,13.95
2023-04-09T05:09:56.342Z,13.95
2023-04-09T05:10:18.032Z,13.94
2023-04-09T05:10:42.115Z,13.86
2023-04-09T05:11:03.830Z,13.93
2023-04-09T05:11:33.308Z,13.94
2023-04-09T05:11:55.225Z,13.96
2023-04-09T05:12:18.037Z,13.97
2023-04-09T05:12:43.648Z,13.96
2023-04-09T05:13:08.680Z,13.95
2023-04-09T05:13:32.869Z,13.95